createdAt,value
2018-11-20T00:00:16.800Z,75.5
2018-11-20T00:01:16.878Z,75.8
2018-11-20T00:02:17.188Z,76.0
2018-11-20T00:03:16.501Z,75.8
2018-11-20T00:04:16.823Z,75.5
2018-11-20T00:05:17.602Z,75.7
2018-11-20T00:06:17.010Z,75.7
2018-11-20T00:07:16.308Z,75.7
2018-11-20T00:08:16.632Z,75.6
2018-11-20T00:09:16.919Z,75.8
2018-11-20T00:10:17.256Z,76.0
2018-11-20T00:11:16.320Z,76.1
2018-11-20T00:12:16.634Z,76.2
2018-11-20T00:13:16.926Z,76.1
2018-11-20T00:14:17.232Z,76.1
2018-11-20T00:15:16.540Z,76.2
2018-11-20T00:16:16.846Z,76.0
2018-11-20T00:17:17.164Z,75.8
2018-11-20T00:18:16.476Z,75.7
2018-11-20T00:19:16.785Z,75.8
2018-11-20T00:20:17.072Z,75.6
2018-11-20T00:21:17.182Z,76.0
2018-11-20T00:22:16.522Z,76.3
2018-11-20T00:23:16.806Z,75.9
2018-11-20T00:24:17.131Z,75.8
2018-11-20T00:25:16.466Z,75.8
2018-11-20T00:26:16.780Z,76.1
2018-11-20T00:27:17.367Z,76.2
2018-11-20T00:28:16.705Z,76.5
2018-11-20T00:29:17.027Z,76.2
2018-11-20T00:30:16.335Z,76.2
2018-11-20T00:31:16.431Z,76.1
2018-11-20T00:32:16.741Z,76.1
2018-11-20T00:33:17.068Z,76.0
2018-11-20T00:34:16.400Z,75.8
2018-11-20T00:35:16.710Z,75.9
2018-11-20T00:36:17.014Z,76.0
2018-11-20T00:37:16.302Z,76.2
2018-11-20T00:38:16.645Z,76.2
2018-11-20T00:39:16.985Z,76.4
2018-11-20T00:40:17.287Z,76.4
2018-11-20T00:41:16.390Z,76.6
2018-11-20T00:42:16.720Z,76.8
2018-11-20T00:43:17.064Z,76.7
2018-11-20T00:44:16.381Z,76.5
2018-11-20T00:45:16.730Z,76.5
2018-11-20T00:46:17.036Z,76.6
2018-11-20T00:47:16.342Z,76.7
2018-11-20T00:48:16.643Z,76.8
2018-11-20T00:49:16.972Z,76.7
2018-11-20T00:50:17.287Z,76.9
2018-11-20T00:51:16.349Z,76.9
2018-11-20T00:52:16.658Z,77.1
2018-11-20T00:53:16.947Z,77.1
2018-11-20T00:54:17.289Z,76.9
2018-11-20T00:55:16.621Z,76.8
2018-11-20T00:56:16.926Z,76.8
2018-11-20T00:57:17.290Z,76.8
2018-11-20T00:58:16.591Z,77.0
2018-11-20T00:59:16.889Z,77.3
2018-11-20T01:00:17.217Z,77.5
2018-11-20T01:01:17.267Z,77.5
2018-11-20T01:02:17.385Z,77.3
2018-11-20T01:03:16.688Z,77.4
2018-11-20T01:04:16.991Z,77.5
2018-11-20T01:05:16.286Z,77.5
2018-11-20T01:06:16.569Z,77.3
2018-11-20T01:07:16.867Z,77.5
2018-11-20T01:08:17.195Z,77.4
2018-11-20T01:09:16.499Z,77.4
2018-11-20T01:10:16.863Z,77.3
2018-11-20T01:11:16.939Z,77.5
2018-11-20T01:12:17.266Z,77.8
2018-11-20T01:13:16.580Z,77.8
2018-11-20T01:14:16.893Z,77.7
2018-11-20T01:15:17.195Z,78.0
2018-11-20T01:16:16.505Z,78.0
2018-11-20T01:17:16.815Z,78.2
2018-11-20T01:18:17.101Z,78.2
2018-11-20T01:19:16.436Z,78.1
2018-11-20T01:20:16.751Z,78.0
2018-11-20T01:21:16.823Z,77.8
2018-11-20T01:22:17.175Z,77.9
2018-11-20T01:23:16.746Z,78.0
2018-11-20T01:24:17.012Z,77.9
2018-11-20T01:25:16.343Z,77.7
2018-11-20T01:26:16.654Z,77.5
2018-11-20T01:27:16.973Z,77.7
2018-11-20T01:28:17.308Z,77.6
2018-11-20T01:29:16.624Z,77.7
2018-11-20T01:30:16.944Z,77.5
2018-11-20T01:31:17.040Z,77.4
2018-11-20T01:32:16.346Z,77.4
2018-11-20T01:33:16.663Z,77.5
2018-11-20T01:34:16.976Z,77.6
2018-11-20T01:35:17.272Z,77.4
2018-11-20T01:36:16.532Z,77.4
2018-11-20T01:37:16.830Z,77.8
2018-11-20T01:38:17.142Z,77.7
2018-11-20T01:39:16.465Z,77.7
2018-11-20T01:40:16.760Z,77.8
2018-11-20T01:41:16.871Z,77.8
2018-11-20T01:42:17.176Z,77.6
2018-11-20T01:43:16.485Z,77.7
2018-11-20T01:44:16.818Z,77.4
2018-11-20T01:45:17.155Z,77.8
2018-11-20T01:46:16.471Z,77.8
2018-11-20T01:47:16.815Z,77.6
2018-11-20T01:48:17.124Z,77.3
2018-11-20T01:49:16.444Z,77.6
2018-11-20T01:50:16.743Z,78.0
2018-11-20T01:51:17.015Z,77.8
2018-11-20T01:52:16.390Z,77.9
2018-11-20T01:53:16.716Z,78.0
2018-11-20T01:54:17.037Z,78.2
2018-11-20T01:55:16.372Z,77.9
2018-11-20T01:56:16.672Z,78.2
2018-11-20T01:57:16.974Z,78.3
2018-11-20T01:58:17.299Z,78.2
2018-11-20T01:59:16.612Z,78.6
2018-11-20T02:00:16.953Z,78.2
2018-11-20T02:01:17.013Z,78.1
2018-11-20T02:02:16.317Z,78.0
2018-11-20T02:03:16.643Z,78.1
2018-11-20T02:04:17.237Z,78.4
2018-11-20T02:05:16.686Z,78.0
2018-11-20T02:06:17.035Z,78.1
2018-11-20T02:07:16.320Z,78.2
2018-11-20T02:08:16.640Z,78.1
2018-11-20T02:09:16.932Z,78.0
2018-11-20T02:10:17.247Z,77.8
2018-11-20T02:11:17.296Z,78.1
2018-11-20T02:12:16.612Z,78.1
2018-11-20T02:13:16.933Z,78.1
2018-11-20T02:14:17.244Z,78.2
2018-11-20T02:15:16.558Z,78.2
2018-11-20T02:16:16.876Z,78.6
2018-11-20T02:17:17.209Z,78.7
2018-11-20T02:18:16.523Z,78.7
2018-11-20T02:19:16.839Z,78.7
2018-11-20T02:20:17.162Z,78.8
2018-11-20T02:21:17.173Z,78.8
2018-11-20T02:22:16.491Z,78.4
2018-11-20T02:23:16.791Z,78.3
2018-11-20T02:24:17.086Z,78.5
2018-11-20T02:25:16.396Z,78.5
2018-11-20T02:26:16.698Z,78.5
2018-11-20T02:27:17.022Z,78.8
2018-11-20T02:28:16.326Z,78.8
2018-11-20T02:29:16.661Z,78.8
2018-11-20T02:30:17.030Z,79.0
2018-11-20T02:31:17.077Z,79.0
2018-11-20T02:32:16.397Z,79.5
2018-11-20T02:33:16.709Z,79.7
2018-11-20T02:34:17.063Z,79.6
2018-11-20T02:35:16.375Z,79.7
2018-11-20T02:36:16.677Z,79.0
2018-11-20T02:37:16.990Z,79.2
2018-11-20T02:38:16.265Z,79.4
2018-11-20T02:39:16.587Z,79.4
2018-11-20T02:40:16.904Z,79.3
2018-11-20T02:41:16.981Z,79.0
2018-11-20T02:42:17.288Z,78.8
2018-11-20T02:43:16.595Z,79.2
2018-11-20T02:44:16.913Z,79.2
2018-11-20T02:45:17.243Z,79.7
2018-11-20T02:46:16.568Z,79.5
2018-11-20T02:47:16.884Z,79.2
2018-11-20T02:48:17.214Z,79.3
2018-11-20T02:49:16.532Z,79.2
2018-11-20T02:50:16.795Z,79.5
2018-11-20T02:51:16.991Z,79.8
2018-11-20T02:52:16.329Z,79.6
2018-11-20T02:53:16.671Z,79.5
2018-11-20T02:54:16.992Z,79.8
2018-11-20T02:55:16.296Z,79.8
2018-11-20T02:56:16.590Z,79.6
2018-11-20T02:57:16.904Z,79.3
2018-11-20T02:58:17.211Z,79.3
2018-11-20T02:59:16.523Z,79.5
2018-11-20T03:00:16.823Z,79.7
2018-11-20T03:01:16.937Z,79.7
2018-11-20T03:02:17.248Z,79.7
2018-11-20T03:03:16.534Z,79.4
2018-11-20T03:04:16.853Z,79.3
2018-11-20T03:05:17.128Z,79.3
2018-11-20T03:06:16.450Z,79.3
2018-11-20T03:07:16.765Z,79.4
2018-11-20T03:08:17.108Z,79.8
2018-11-20T03:09:16.412Z,79.7
2018-11-20T03:10:16.776Z,79.5
2018-11-20T03:11:16.768Z,79.8
2018-11-20T03:12:17.092Z,79.8
2018-11-20T03:13:16.378Z,79.8
2018-11-20T03:14:16.689Z,79.8
2018-11-20T03:15:16.977Z,79.7
2018-11-20T03:16:17.305Z,79.7
2018-11-20T03:17:16.646Z,79.5
2018-11-20T03:18:16.988Z,79.6
2018-11-20T03:19:17.324Z,79.8
2018-11-20T03:20:16.654Z,79.8
2018-11-20T03:21:16.712Z,79.7
2018-11-20T03:22:17.036Z,79.5
2018-11-20T03:23:16.384Z,79.9
2018-11-20T03:24:16.703Z,79.7
2018-11-20T03:25:17.013Z,79.6
2018-11-20T03:26:16.316Z,79.7
2018-11-20T03:27:16.643Z,79.5
2018-11-20T03:28:16.942Z,79.3
2018-11-20T03:29:17.289Z,79.4
2018-11-20T03:30:16.609Z,79.3
2018-11-20T03:31:16.667Z,79.4
2018-11-20T03:32:16.981Z,79.2
2018-11-20T03:33:17.340Z,79.5
2018-11-20T03:34:17.216Z,79.7
2018-11-20T03:35:16.538Z,79.7
2018-11-20T03:36:17.169Z,79.4
2018-11-20T03:37:16.529Z,79.4
2018-11-20T03:38:16.835Z,79.3
2018-11-20T03:39:17.136Z,79.5
2018-11-20T03:40:16.424Z,79.5
2018-11-20T03:41:16.485Z,79.4
2018-11-20T03:42:16.795Z,79.3
2018-11-20T03:43:17.081Z,79.4
2018-11-20T03:44:16.401Z,79.3
2018-11-20T03:45:16.682Z,79.5
2018-11-20T03:46:16.997Z,79.8
2018-11-20T03:47:16.313Z,79.7
2018-11-20T03:48:16.632Z,79.7
2018-11-20T03:49:16.915Z,79.6
2018-11-20T03:50:17.228Z,79.2
2018-11-20T03:51:17.303Z,79.3
2018-11-20T03:52:16.625Z,79.4
2018-11-20T03:53:16.930Z,79.4
2018-11-20T03:54:17.385Z,79.5
2018-11-20T03:55:16.689Z,79.6
2018-11-20T03:56:16.996Z,79.6
2018-11-20T03:57:16.300Z,79.7
2018-11-20T03:58:16.610Z,79.8
2018-11-20T03:59:16.934Z,79.9
2018-11-20T04:00:17.253Z,79.5
2018-11-20T04:01:16.318Z,79.8
2018-11-20T04:02:16.621Z,79.9
2018-11-20T04:03:16.933Z,79.8
2018-11-20T04:04:17.587Z,79.5
2018-11-20T04:05:16.894Z,79.5
2018-11-20T04:06:17.197Z,79.6
2018-11-20T04:07:16.514Z,79.7
2018-11-20T04:08:16.808Z,79.8
2018-11-20T04:09:17.341Z,79.7
2018-11-20T04:10:16.694Z,79.7
2018-11-20T04:11:16.718Z,80.0
2018-11-20T04:12:17.046Z,79.9
2018-11-20T04:13:16.372Z,80.0
2018-11-20T04:14:16.660Z,80.1
2018-11-20T04:15:16.982Z,79.8
2018-11-20T04:16:17.309Z,79.7
2018-11-20T04:17:16.621Z,79.7
2018-11-20T04:18:16.941Z,79.8
2018-11-20T04:19:17.479Z,79.9
2018-11-20T04:20:16.800Z,79.8
2018-11-20T04:21:16.860Z,79.4
2018-11-20T04:22:17.147Z,79.5
2018-11-20T04:23:16.478Z,79.6
2018-11-20T04:24:16.967Z,79.7
2018-11-20T04:25:17.304Z,79.7
2018-11-20T04:26:16.598Z,79.6
2018-11-20T04:27:16.906Z,79.5
2018-11-20T04:28:17.215Z,79.5
2018-11-20T04:29:16.533Z,79.7
2018-11-20T04:30:16.855Z,79.6
2018-11-20T04:31:16.932Z,79.7
2018-11-20T04:32:17.251Z,79.8
2018-11-20T04:33:16.578Z,79.8
2018-11-20T04:34:16.876Z,80.0
2018-11-20T04:35:17.209Z,79.8
2018-11-20T04:36:16.525Z,79.8
2018-11-20T04:37:16.842Z,79.5
2018-11-20T04:38:17.149Z,79.7
2018-11-20T04:39:16.466Z,79.7
2018-11-20T04:40:16.765Z,80.0
2018-11-20T04:41:17.097Z,79.9
2018-11-20T04:42:16.487Z,80.0
2018-11-20T04:43:16.793Z,79.9
2018-11-20T04:44:17.122Z,80.0
2018-11-20T04:45:16.434Z,80.0
2018-11-20T04:46:16.742Z,80.0
2018-11-20T04:47:17.054Z,80.0
2018-11-20T04:48:16.359Z,80.3
2018-11-20T04:49:16.657Z,80.1
2018-11-20T04:50:16.956Z,79.9
2018-11-20T04:51:17.013Z,79.9
2018-11-20T04:52:16.321Z,80.2
2018-11-20T04:53:16.624Z,80.3
2018-11-20T04:54:16.909Z,80.3
2018-11-20T04:55:17.978Z,80.0
2018-11-20T04:56:17.304Z,80.0
2018-11-20T04:57:16.628Z,79.9
2018-11-20T04:58:16.900Z,79.9
2018-11-20T04:59:17.189Z,80.0
2018-11-20T05:00:16.531Z,80.2
2018-11-20T05:01:16.570Z,80.2
2018-11-20T05:02:16.875Z,80.2
2018-11-20T05:03:17.203Z,80.1
2018-11-20T05:04:16.539Z,80.1
2018-11-20T05:05:16.840Z,80.2
2018-11-20T05:06:17.169Z,80.4
2018-11-20T05:07:16.499Z,80.2
2018-11-20T05:08:16.794Z,80.2
2018-11-20T05:09:17.153Z,80.0
2018-11-20T05:10:16.468Z,79.9
2018-11-20T05:11:16.739Z,80.0
2018-11-20T05:12:17.037Z,80.0
2018-11-20T05:13:16.429Z,80.2
2018-11-20T05:14:16.827Z,80.3
2018-11-20T05:15:17.455Z,80.2
2018-11-20T05:16:16.786Z,80.3
2018-11-20T05:17:17.120Z,80.3
2018-11-20T05:18:16.434Z,80.3
2018-11-20T05:19:16.741Z,80.0
2018-11-20T05:20:17.020Z,80.0
2018-11-20T05:21:17.357Z,80.2
2018-11-20T05:22:16.696Z,80.1
2018-11-20T05:23:17.034Z,80.2
2018-11-20T05:24:16.337Z,80.0
2018-11-20T05:25:16.658Z,80.0
2018-11-20T05:26:16.969Z,80.0
2018-11-20T05:27:17.312Z,80.2
2018-11-20T05:28:16.594Z,80.3
2018-11-20T05:29:16.917Z,80.2
2018-11-20T05:30:17.235Z,80.4
2018-11-20T05:31:16.296Z,80.2
2018-11-20T05:32:16.620Z,80.1
2018-11-20T05:33:16.944Z,80.0
2018-11-20T05:34:17.245Z,80.2
2018-11-20T05:35:16.573Z,80.5
2018-11-20T05:36:16.899Z,80.2
2018-11-20T05:37:17.190Z,80.1
2018-11-20T05:38:16.472Z,80.0
2018-11-20T05:39:16.816Z,80.0
2018-11-20T05:40:17.182Z,80.2
2018-11-20T05:41:17.167Z,80.2
2018-11-20T05:42:16.501Z,80.0
2018-11-20T05:43:16.826Z,79.9
2018-11-20T05:44:17.163Z,79.8
2018-11-20T05:45:16.486Z,79.8
2018-11-20T05:46:16.787Z,80.0
2018-11-20T05:47:17.126Z,80.0
2018-11-20T05:48:16.427Z,80.1
2018-11-20T05:49:16.741Z,80.1
2018-11-20T05:50:17.072Z,80.0
2018-11-20T05:51:17.097Z,80.2
2018-11-20T05:52:16.412Z,80.2
2018-11-20T05:53:16.715Z,80.2
2018-11-20T05:54:17.039Z,80.3
2018-11-20T05:55:16.345Z,80.2
2018-11-20T05:56:16.653Z,80.5
2018-11-20T05:57:16.961Z,80.5
2018-11-20T05:58:17.252Z,80.5
2018-11-20T05:59:16.544Z,80.4
2018-11-20T06:00:16.843Z,80.6
2018-11-20T06:01:16.935Z,80.6
2018-11-20T06:02:17.231Z,80.2
2018-11-20T06:03:16.507Z,80.1
2018-11-20T06:04:16.811Z,80.3
2018-11-20T06:05:17.133Z,80.5
2018-11-20T06:06:16.404Z,80.4
2018-11-20T06:07:16.698Z,80.5
2018-11-20T06:08:17.008Z,80.4
2018-11-20T06:09:16.311Z,80.3
2018-11-20T06:10:16.627Z,80.5
2018-11-20T06:11:16.677Z,80.6
2018-11-20T06:12:17.012Z,80.7
2018-11-20T06:13:16.318Z,80.5
2018-11-20T06:14:16.650Z,80.5
2018-11-20T06:15:16.972Z,80.4
2018-11-20T06:16:17.284Z,80.4
2018-11-20T06:17:16.630Z,80.4
2018-11-20T06:18:16.954Z,80.4
2018-11-20T06:19:17.269Z,80.5
2018-11-20T06:20:16.616Z,80.5
2018-11-20T06:21:16.648Z,80.7
2018-11-20T06:22:16.961Z,80.5
2018-11-20T06:23:17.273Z,80.5
2018-11-20T06:24:16.577Z,80.5
2018-11-20T06:25:16.912Z,80.7
2018-11-20T06:26:17.195Z,80.8
2018-11-20T06:27:16.494Z,80.5
2018-11-20T06:28:16.807Z,80.5
2018-11-20T06:29:17.239Z,80.4
2018-11-20T06:30:16.602Z,80.6
2018-11-20T06:31:16.671Z,80.7
2018-11-20T06:32:16.987Z,80.7
2018-11-20T06:33:16.337Z,81.0
2018-11-20T06:34:16.732Z,80.8
2018-11-20T06:35:17.153Z,80.4
2018-11-20T06:36:16.488Z,80.5
2018-11-20T06:37:16.790Z,80.5
2018-11-20T06:38:17.094Z,80.5
2018-11-20T06:39:16.384Z,80.7
2018-11-20T06:40:16.701Z,80.7
2018-11-20T06:41:16.987Z,80.8
2018-11-20T06:42:16.353Z,80.8
2018-11-20T06:43:16.683Z,80.5
2018-11-20T06:44:16.988Z,80.5
2018-11-20T06:45:16.300Z,80.7
2018-11-20T06:46:16.646Z,80.4
2018-11-20T06:47:17.149Z,80.6
2018-11-20T06:48:16.529Z,80.5
2018-11-20T06:49:16.864Z,80.5
2018-11-20T06:50:17.184Z,80.5
2018-11-20T06:51:17.229Z,80.2
2018-11-20T06:52:16.543Z,80.2
2018-11-20T06:53:17.420Z,80.3
2018-11-20T06:54:16.770Z,80.5
2018-11-20T06:55:17.091Z,80.5
2018-11-20T06:56:16.370Z,80.3
2018-11-20T06:57:16.814Z,80.4
2018-11-20T06:58:17.175Z,80.7
2018-11-20T06:59:16.438Z,80.7
2018-11-20T07:00:16.762Z,80.2
2018-11-20T07:01:16.879Z,80.0
2018-11-20T07:02:17.200Z,80.1
2018-11-20T07:03:16.513Z,80.2
2018-11-20T07:04:16.826Z,80.2
2018-11-20T07:05:17.140Z,80.2
2018-11-20T07:06:16.462Z,80.2
2018-11-20T07:07:16.868Z,80.2
2018-11-20T07:08:17.396Z,80.1
2018-11-20T07:09:16.748Z,80.0
2018-11-20T07:10:17.079Z,80.0
2018-11-20T07:11:17.151Z,80.3
2018-11-20T07:12:16.452Z,80.3
2018-11-20T07:13:16.743Z,80.0
2018-11-20T07:14:17.077Z,80.0
2018-11-20T07:15:16.716Z,79.8
2018-11-20T07:16:17.188Z,79.8
2018-11-20T07:17:16.557Z,79.8
2018-11-20T07:18:16.884Z,79.8
2018-11-20T07:19:17.223Z,79.9
2018-11-20T07:20:16.544Z,79.8
2018-11-20T07:21:16.622Z,79.5
2018-11-20T07:22:16.961Z,79.7
2018-11-20T07:23:17.257Z,79.5
2018-11-20T07:24:16.626Z,79.5
2018-11-20T07:25:16.962Z,79.5
2018-11-20T07:26:17.288Z,79.8
2018-11-20T07:27:16.561Z,79.7
2018-11-20T07:28:16.875Z,79.7
2018-11-20T07:29:17.201Z,79.6
2018-11-20T07:30:16.875Z,79.5
2018-11-20T07:31:16.793Z,79.6
2018-11-20T07:32:17.135Z,79.6
2018-11-20T07:33:16.437Z,79.7
2018-11-20T07:34:16.745Z,79.7
2018-11-20T07:35:17.088Z,79.6
2018-11-20T07:36:16.908Z,79.5
2018-11-20T07:37:17.155Z,79.5
2018-11-20T07:38:16.681Z,79.6
2018-11-20T07:39:17.007Z,79.7
2018-11-20T07:40:16.325Z,79.5
2018-11-20T07:41:16.398Z,79.6
2018-11-20T07:42:16.683Z,79.5
2018-11-20T07:43:17.106Z,79.6
2018-11-20T07:44:16.814Z,79.4
2018-11-20T07:45:17.252Z,79.5
2018-11-20T07:46:16.587Z,79.5
2018-11-20T07:47:16.902Z,79.8
2018-11-20T07:48:17.214Z,79.8
2018-11-20T07:49:16.528Z,79.5
2018-11-20T07:50:16.819Z,79.5
2018-11-20T07:51:16.916Z,79.3
2018-11-20T07:52:17.234Z,79.4
2018-11-20T07:53:16.550Z,79.2
2018-11-20T07:54:16.857Z,79.4
2018-11-20T07:55:17.272Z,79.7
2018-11-20T07:56:16.968Z,79.5
2018-11-20T07:57:16.412Z,79.3
2018-11-20T07:58:16.724Z,79.4
2018-11-20T07:59:17.033Z,79.3
2018-11-20T08:00:16.371Z,79.2
2018-11-20T08:01:16.450Z,79.2
2018-11-20T08:02:16.846Z,79.2
2018-11-20T08:03:17.191Z,79.4
2018-11-20T08:04:16.501Z,79.8
2018-11-20T08:05:16.818Z,80.2
2018-11-20T08:06:17.124Z,80.4
2018-11-20T08:07:16.443Z,80.8
2018-11-20T08:08:16.842Z,81.3
2018-11-20T08:09:17.211Z,81.9
2018-11-20T08:10:16.702Z,82.2
2018-11-20T08:11:16.577Z,83.0
2018-11-20T08:12:16.903Z,82.6
2018-11-20T08:13:17.229Z,83.1
2018-11-20T08:14:16.536Z,83.8
2018-11-20T08:15:16.901Z,84.3
2018-11-20T08:16:17.232Z,84.7
2018-11-20T08:17:16.532Z,84.9
2018-11-20T08:18:16.826Z,85.4
2018-11-20T08:19:17.303Z,85.8
2018-11-20T08:20:16.625Z,86.1
2018-11-20T08:21:16.711Z,86.3
2018-11-20T08:22:17.008Z,86.6
2018-11-20T08:23:16.301Z,87.0
2018-11-20T08:24:16.590Z,87.4
2018-11-20T08:25:17.069Z,87.8
2018-11-20T08:26:16.924Z,87.8
2018-11-20T08:27:16.346Z,88.5
2018-11-20T08:28:16.699Z,88.2
2018-11-20T08:29:17.017Z,88.1
2018-11-20T08:30:16.335Z,88.3
2018-11-20T08:31:16.405Z,88.8
2018-11-20T08:32:16.719Z,88.8
2018-11-20T08:33:17.022Z,89.2
2018-11-20T08:34:16.486Z,89.2
2018-11-20T08:35:17.244Z,89.4
2018-11-20T08:36:16.575Z,89.3
2018-11-20T08:37:17.016Z,89.5
2018-11-20T08:38:16.369Z,89.8
2018-11-20T08:39:16.669Z,89.9
2018-11-20T08:40:16.995Z,90.2
2018-11-20T08:41:17.027Z,90.3
2018-11-20T08:42:16.659Z,90.7
2018-11-20T08:43:17.079Z,90.7
2018-11-20T08:44:16.534Z,91.1
2018-11-20T08:45:16.916Z,91.2
2018-11-20T08:46:17.235Z,91.2
2018-11-20T08:47:16.553Z,91.6
2018-11-20T08:48:16.999Z,91.5
2018-11-20T08:49:16.424Z,91.3
2018-11-20T08:50:16.749Z,91.8
2018-11-20T08:51:16.812Z,92.0
2018-11-20T08:52:17.130Z,92.5
2018-11-20T08:53:16.454Z,92.7
2018-11-20T08:54:16.761Z,93.0
2018-11-20T08:55:17.073Z,93.4
2018-11-20T08:56:16.396Z,93.7
2018-11-20T08:57:16.732Z,94.0
2018-11-20T08:58:17.024Z,94.2
2018-11-20T08:59:16.326Z,94.4
2018-11-20T09:00:16.706Z,95.0
2018-11-20T09:01:16.692Z,95.3
2018-11-20T09:02:17.208Z,95.6
2018-11-20T09:03:16.958Z,95.7
2018-11-20T09:04:16.323Z,95.7
2018-11-20T09:05:16.648Z,96.2
2018-11-20T09:06:16.939Z,96.3
2018-11-20T09:07:17.234Z,96.7
2018-11-20T09:08:16.545Z,96.8
2018-11-20T09:09:16.839Z,96.8
2018-11-20T09:10:17.306Z,96.8
2018-11-20T09:11:17.240Z,96.8
2018-11-20T09:12:16.549Z,96.7
2018-11-20T09:13:16.860Z,96.7
2018-11-20T09:14:17.163Z,96.6
2018-11-20T09:15:16.468Z,96.7
2018-11-20T09:16:16.794Z,96.7
2018-11-20T09:17:17.112Z,96.8
2018-11-20T09:18:16.419Z,96.9
2018-11-20T09:19:16.721Z,96.9
2018-11-20T09:20:17.241Z,96.9
2018-11-20T09:21:17.362Z,96.9
2018-11-20T09:22:16.766Z,96.8
2018-11-20T09:23:17.074Z,96.9
2018-11-20T09:24:16.397Z,97.0
2018-11-20T09:25:16.733Z,97.0
2018-11-20T09:26:17.015Z,97.0
2018-11-20T09:27:16.331Z,97.2
2018-11-20T09:28:16.641Z,97.2
2018-11-20T09:29:16.939Z,97.2
2018-11-20T09:30:17.299Z,97.1
2018-11-20T09:31:16.344Z,97.0
2018-11-20T09:32:16.682Z,97.0
2018-11-20T09:33:17.011Z,97.0
2018-11-20T09:34:16.442Z,97.0
2018-11-20T09:35:17.119Z,97.0
2018-11-20T09:36:16.593Z,97.0
2018-11-20T09:37:16.884Z,97.0
2018-11-20T09:38:17.192Z,97.0
2018-11-20T09:39:16.489Z,97.0
2018-11-20T09:40:16.785Z,96.8
2018-11-20T09:41:16.883Z,96.7
2018-11-20T09:42:17.193Z,96.8
2018-11-20T09:43:16.516Z,96.8
2018-11-20T09:44:16.792Z,96.7
2018-11-20T09:45:17.145Z,96.7
2018-11-20T09:46:16.438Z,96.7
2018-11-20T09:47:16.730Z,96.7
2018-11-20T09:48:17.040Z,96.8
2018-11-20T09:49:16.346Z,96.8
2018-11-20T09:50:16.659Z,96.8
2018-11-20T09:51:16.899Z,96.8
2018-11-20T09:52:17.324Z,96.6
2018-11-20T09:53:16.656Z,96.6
2018-11-20T09:54:17.100Z,96.2
2018-11-20T09:55:16.477Z,96.3
2018-11-20T09:56:16.811Z,96.2
2018-11-20T09:57:17.141Z,96.0
2018-11-20T09:58:16.468Z,96.0
2018-11-20T09:59:16.883Z,96.0
2018-11-20T10:00:17.208Z,95.7
2018-11-20T10:01:17.322Z,94.9
2018-11-20T10:02:16.639Z,94.8
2018-11-20T10:03:16.938Z,94.8
2018-11-20T10:04:17.226Z,94.8
2018-11-20T10:05:16.557Z,94.8
2018-11-20T10:06:16.888Z,94.2
2018-11-20T10:07:17.413Z,93.7
2018-11-20T10:08:16.797Z,93.9
2018-11-20T10:09:17.111Z,93.2
2018-11-20T10:10:16.439Z,93.2
2018-11-20T10:11:16.480Z,92.9
2018-11-20T10:12:16.802Z,92.3
2018-11-20T10:13:17.095Z,92.1
2018-11-20T10:14:16.800Z,92.1
2018-11-20T10:15:17.754Z,92.9
2018-11-20T10:16:17.195Z,92.0
2018-11-20T10:17:16.497Z,91.2
2018-11-20T10:18:16.809Z,91.2
2018-11-20T10:19:17.108Z,91.8
2018-11-20T10:20:16.437Z,91.8
2018-11-20T10:21:16.595Z,91.5
2018-11-20T10:22:16.917Z,91.2
2018-11-20T10:23:17.215Z,91.3
2018-11-20T10:24:16.528Z,91.8
2018-11-20T10:25:17.068Z,91.4
2018-11-20T10:26:16.538Z,91.5
2018-11-20T10:27:16.853Z,91.5
2018-11-20T10:28:17.165Z,91.4
2018-11-20T10:29:16.523Z,91.3
2018-11-20T10:30:16.862Z,92.2
2018-11-20T10:31:16.904Z,92.2
2018-11-20T10:32:17.176Z,91.5
2018-11-20T10:33:16.513Z,91.3
2018-11-20T10:34:16.985Z,91.7
2018-11-20T10:35:16.395Z,91.8
2018-11-20T10:36:16.722Z,92.0
2018-11-20T10:37:17.032Z,91.8
2018-11-20T10:38:16.348Z,92.1
2018-11-20T10:39:16.676Z,91.7
2018-11-20T10:40:17.068Z,91.5
2018-11-20T10:41:17.048Z,91.9
2018-11-20T10:42:16.380Z,91.6
2018-11-20T10:43:16.691Z,91.7
2018-11-20T10:44:16.971Z,91.5
2018-11-20T10:45:17.425Z,91.3
2018-11-20T10:46:17.107Z,91.2
2018-11-20T10:47:16.457Z,91.9
2018-11-20T10:48:16.767Z,91.4
2018-11-20T10:49:17.065Z,91.5
2018-11-20T10:50:16.421Z,91.7
2018-11-20T10:51:16.473Z,90.7
2018-11-20T10:52:16.797Z,91.3
2018-11-20T10:53:17.132Z,91.3
2018-11-20T10:54:16.440Z,91.1
2018-11-20T10:55:16.744Z,91.3
2018-11-20T10:56:17.102Z,91.6
2018-11-20T10:57:16.373Z,90.6
2018-11-20T10:58:16.641Z,90.8
2018-11-20T10:59:16.940Z,91.0
2018-11-20T11:00:17.267Z,91.3
2018-11-20T11:01:16.289Z,92.0
2018-11-20T11:02:16.583Z,90.8
2018-11-20T11:03:16.903Z,91.3
2018-11-20T11:04:17.466Z,91.7
2018-11-20T11:05:16.869Z,91.6
2018-11-20T11:06:17.426Z,92.0
2018-11-20T11:07:17.147Z,91.7
2018-11-20T11:08:16.683Z,91.3
2018-11-20T11:09:17.126Z,91.3
2018-11-20T11:10:16.463Z,91.5
2018-11-20T11:11:16.613Z,91.4
2018-11-20T11:12:16.942Z,91.5
2018-11-20T11:13:17.228Z,91.5
2018-11-20T11:14:16.551Z,91.2
2018-11-20T11:15:16.862Z,91.0
2018-11-20T11:16:17.156Z,91.1
2018-11-20T11:17:16.484Z,91.3
2018-11-20T11:18:16.892Z,91.2
2018-11-20T11:19:17.244Z,91.3
2018-11-20T11:20:16.752Z,91.1
2018-11-20T11:21:16.628Z,90.7
2018-11-20T11:22:16.946Z,91.0
2018-11-20T11:23:17.250Z,90.8
2018-11-20T11:24:16.585Z,90.2
2018-11-20T11:25:16.891Z,89.8
2018-11-20T11:26:17.197Z,90.1
2018-11-20T11:27:16.511Z,90.1
2018-11-20T11:28:16.820Z,89.9
2018-11-20T11:29:17.108Z,90.4
2018-11-20T11:30:16.380Z,90.2
2018-11-20T11:31:16.494Z,89.7
2018-11-20T11:32:16.786Z,90.0
2018-11-20T11:33:17.120Z,89.5
2018-11-20T11:34:16.442Z,90.0
2018-11-20T11:35:16.763Z,89.1
2018-11-20T11:36:17.084Z,88.9
2018-11-20T11:37:16.400Z,89.5
2018-11-20T11:38:16.681Z,89.3
2018-11-20T11:39:17.000Z,89.6
2018-11-20T11:40:16.317Z,89.5
2018-11-20T11:41:16.395Z,89.5
2018-11-20T11:42:16.727Z,89.2
2018-11-20T11:43:17.047Z,89.5
2018-11-20T11:44:16.355Z,89.2
2018-11-20T11:45:16.693Z,89.5
2018-11-20T11:46:16.998Z,89.8
2018-11-20T11:47:16.278Z,89.2
2018-11-20T11:48:16.556Z,88.8
2018-11-20T11:49:16.827Z,89.1
2018-11-20T11:50:17.135Z,88.9
2018-11-20T11:51:17.206Z,88.7
2018-11-20T11:52:16.527Z,89.0
2018-11-20T11:53:16.891Z,89.3
2018-11-20T11:54:17.206Z,89.3
2018-11-20T11:55:16.513Z,89.3
2018-11-20T11:56:16.829Z,89.5
2018-11-20T11:57:17.137Z,88.6
2018-11-20T11:58:18.933Z,89.0
2018-11-20T11:59:17.229Z,89.5
2018-11-20T12:00:16.562Z,89.1
2018-11-20T12:01:16.615Z,89.2
2018-11-20T12:03:17.109Z,88.8
2018-11-20T12:04:16.411Z,88.8
2018-11-20T12:05:16.730Z,88.7
2018-11-20T12:06:17.038Z,89.0
2018-11-20T12:07:16.695Z,89.0
2018-11-20T12:08:16.996Z,89.2
2018-11-20T12:09:16.359Z,89.0
2018-11-20T12:10:16.704Z,89.0
2018-11-20T12:11:16.759Z,89.3
2018-11-20T12:12:17.087Z,89.1
2018-11-20T12:14:16.578Z,88.7
2018-11-20T12:15:16.901Z,89.0
2018-11-20T12:16:17.208Z,89.4
2018-11-20T12:17:16.513Z,88.7
2018-11-20T12:18:16.818Z,88.6
2018-11-20T12:19:17.128Z,88.5
2018-11-20T12:20:16.423Z,88.6
2018-11-20T12:21:16.501Z,88.8
2018-11-20T12:22:16.809Z,88.8
2018-11-20T12:23:17.117Z,89.0
2018-11-20T12:24:16.430Z,88.9
2018-11-20T12:25:16.752Z,89.4
2018-11-20T12:26:17.063Z,89.2
2018-11-20T12:27:16.361Z,88.9
2018-11-20T12:28:16.906Z,88.9
2018-11-20T12:29:17.272Z,89.1
2018-11-20T12:30:16.596Z,89.2
2018-11-20T12:31:16.654Z,88.8
2018-11-20T12:32:16.992Z,89.0
2018-11-20T12:33:16.297Z,89.0
2018-11-20T12:34:18.980Z,89.7
2018-11-20T12:35:16.330Z,88.8
2018-11-20T12:36:16.615Z,88.7
2018-11-20T12:37:16.887Z,88.5
2018-11-20T12:38:19.735Z,88.3
2018-11-20T12:39:17.086Z,88.2
2018-11-20T12:40:16.963Z,88.7
2018-11-20T12:41:16.462Z,88.2
2018-11-20T12:42:16.738Z,87.9
2018-11-20T12:43:18.360Z,88.7
2018-11-20T12:44:20.172Z,88.1
2018-11-20T12:45:16.338Z,88.2
2018-11-20T12:46:16.657Z,87.8
2018-11-20T12:47:16.965Z,88.1
2018-11-20T12:48:17.243Z,88.1
2018-11-20T12:49:19.138Z,88.0
2018-11-20T12:50:16.479Z,87.8
2018-11-20T12:51:16.533Z,87.8
2018-11-20T12:52:16.828Z,87.8
2018-11-20T12:53:17.213Z,87.8
2018-11-20T12:54:16.546Z,87.3
2018-11-20T12:55:16.869Z,87.6
2018-11-20T12:56:17.164Z,87.5
2018-11-20T12:57:16.494Z,86.9
2018-11-20T12:58:16.782Z,87.3
2018-11-20T12:59:17.099Z,87.3
2018-11-20T13:00:16.417Z,87.0
2018-11-20T13:01:16.469Z,87.3
2018-11-20T13:02:16.785Z,87.1
2018-11-20T13:03:17.115Z,86.6
2018-11-20T13:04:16.407Z,86.6
2018-11-20T13:05:16.714Z,87.1
2018-11-20T13:06:17.024Z,86.8
2018-11-20T13:07:16.353Z,86.2
2018-11-20T13:08:16.658Z,86.7
2018-11-20T13:09:16.952Z,86.6
2018-11-20T13:10:17.352Z,87.1
2018-11-20T13:11:16.360Z,86.5
2018-11-20T13:12:16.674Z,86.3
2018-11-20T13:13:18.262Z,86.5
2018-11-20T13:14:16.935Z,86.6
2018-11-20T13:15:17.254Z,86.5
2018-11-20T13:16:16.573Z,86.0
2018-11-20T13:17:16.883Z,86.1
2018-11-20T13:18:17.209Z,86.4
2018-11-20T13:19:16.531Z,86.0
2018-11-20T13:20:16.839Z,86.6